Wetterstation Oberdrees
Wetterdaten: aktuell Sonntag, 09.05.2021 13:30
Datum Zeit Temp. A. Feuchte A. Luftdruck Regen Wind Richtung Richtung Taupunkt Windchill Windben
09.05.2021 13:30 25,1 C 46 % 1004,2 hPa 0,0 l/m 15,4 km/h (3 Bft) O-NO 66 12,7 C 23,4 C 30,6 km/h (5 Bft)
09.05.2021 13:25 25,1 C 45 % 1004,5 hPa 0,0 l/m 15,1 km/h (3 Bft) S-SO 155 12,3 C 23,4 C 25,7 km/h (4 Bft)
09.05.2021 13:20 25,2 C 44 % 1004,5 hPa 0,0 l/m 16,2 km/h (3 Bft) S 172 12,1 C 23,4 C 29,0 km/h (5 Bft)
09.05.2021 13:15 25,5 C 44 % 1004,5 hPa 0,0 l/m 15,2 km/h (3 Bft) SW 214 12,3 C 23,9 C 33,8 km/h (5 Bft)
09.05.2021 13:10 25,7 C 43 % 1004,3 hPa 0,0 l/m 14,8 km/h (3 Bft) S-SO 167 12,2 C 24,2 C 29,0 km/h (5 Bft)
09.05.2021 13:05 25,9 C 43 % 1004,2 hPa 0,0 l/m 12,5 km/h (2 Bft) O 99 12,3 C 24,7 C 24,1 km/h (4 Bft)
09.05.2021 13:00 25,8 C 44 % 1004,2 hPa 0,0 l/m 12,8 km/h (3 Bft) S-SO 155 12,6 C 24,6 C 25,7 km/h (4 Bft)
09.05.2021 12:55 26,0 C 43 % 1004,3 hPa 0,0 l/m 12,9 km/h (3 Bft) S-SW 213 12,4 C 24,8 C 32,2 km/h (5 Bft)
09.05.2021 12:50 26,1 C 43 % 1004,2 hPa 0,0 l/m 11,6 km/h (2 Bft) O-NO 77 12,5 C 25,1 C 27,4 km/h (5 Bft)
09.05.2021 12:45 25,8 C 44 % 1004,2 hPa 0,0 l/m 13,2 km/h (3 Bft) S-SW 202 12,6 C 24,5 C 30,6 km/h (5 Bft)
09.05.2021 12:40 25,6 C 46 % 1004,3 hPa 0,0 l/m 12,1 km/h (2 Bft) S 181 13,1 C 24,5 C 24,1 km/h (4 Bft)
09.05.2021 12:35 25,5 C 44 % 1004,2 hPa 0,0 l/m 14,3 km/h (3 Bft) S-SW 204 12,3 C 24,0 C 29,0 km/h (5 Bft)
09.05.2021 12:30 25,4 C 45 % 1004,3 hPa 0,0 l/m 12,6 km/h (3 Bft) S-SW 211 12,6 C 24,2 C 25,7 km/h (4 Bft)
09.05.2021 12:25 25,3 C 44 % 1004,2 hPa 0,0 l/m 14,7 km/h (3 Bft) SW 217 12,2 C 23,7 C 32,2 km/h (5 Bft)
09.05.2021 12:20 25,3 C 46 % 1004,2 hPa 0,0 l/m 12,7 km/h (3 Bft) S-SW 194 12,8 C 24,0 C 27,4 km/h (5 Bft)
09.05.2021 12:15 25,1 C 47 % 1004,3 hPa 0,0 l/m 12,4 km/h (2 Bft) W-SW 243 13,0 C 23,8 C 25,7 km/h (4 Bft)
09.05.2021 12:10 24,9 C 46 % 1004,3 hPa 0,0 l/m 15,1 km/h (3 Bft) S 172 12,5 C 23,2 C 33,8 km/h (5 Bft)
09.05.2021 12:05 24,9 C 47 % 1004,5 hPa 0,0 l/m 14,1 km/h (3 Bft) S-SW 207 12,8 C 23,3 C 37,0 km/h (5 Bft)
09.05.2021 12:00 25,1 C 47 % 1004,5 hPa 0,0 l/m 10,5 km/h (2 Bft) S 184 13,0 C 24,2 C 29,0 km/h (5 Bft)
09.05.2021 11:55 24,9 C 49 % 1004,5 hPa 0,0 l/m 8,6 km/h (2 Bft) W-SW 252 13,4 C 24,4 C 19,3 km/h (3 Bft)
09.05.2021 11:50 24,5 C 50 % 1004,6 hPa 0,0 l/m 9,1 km/h (2 Bft) S-SW 205 13,4 C 23,8 C 20,9 km/h (4 Bft)
09.05.2021 11:45 24,3 C 50 % 1004,8 hPa 0,0 l/m 8,0 km/h (2 Bft) S-SW 200 13,2 C 23,9 C 20,9 km/h (4 Bft)
09.05.2021 11:40 24,2 C 49 % 1004,9 hPa 0,0 l/m 11,2 km/h (2 Bft) W 266 12,8 C 23,0 C 29,0 km/h (5 Bft)
09.05.2021 11:35 24,0 C 50 % 1004,9 hPa 0,0 l/m 8,8 km/h (2 Bft) O-NO 65 12,9 C 23,3 C 25,7 km/h (4 Bft)
09.05.2021 11:30 23,9 C 50 % 1004,9 hPa 0,0 l/m 8,8 km/h (2 Bft) SW 234 12,8 C 23,2 C 19,3 km/h (3 Bft)
09.05.2021 11:25 23,8 C 50 % 1004,9 hPa 0,0 l/m 10,4 km/h (2 Bft) S 173 12,7 C 22,7 C 24,1 km/h (4 Bft)
09.05.2021 11:20 23,6 C 50 % 1005,0 hPa 0,0 l/m 12,7 km/h (3 Bft) NO 54 12,6 C 22,0 C 35,4 km/h (5 Bft)
09.05.2021 11:15 23,6 C 50 % 1005,2 hPa 0,0 l/m 12,8 km/h (3 Bft) SW 233 12,6 C 22,0 C 30,6 km/h (5 Bft)
09.05.2021 11:10 23,6 C 51 % 1005,1 hPa 0,0 l/m 7,2 km/h (2 Bft) W-SW 252 12,9 C 23,4 C 17,7 km/h (3 Bft)
09.05.2021 11:05 23,4 C 51 % 1005,2 hPa 0,0 l/m 8,5 km/h (2 Bft) SO 142 12,7 C 22,8 C 22,5 km/h (4 Bft)
09.05.2021 11:00 23,2 C 52 % 1005,4 hPa 0,0 l/m 8,1 km/h (2 Bft) NW 307 12,8 C 22,7 C 19,3 km/h (3 Bft)
09.05.2021 10:55 23,3 C 50 % 1005,5 hPa 0,0 l/m 7,8 km/h (2 Bft) W-SW 237 12,3 C 22,9 C 22,5 km/h (4 Bft)
09.05.2021 10:50 23,3 C 54 % 1005,6 hPa 0,0 l/m 3,6 km/h (1 Bft) O-SO 104 13,5 C 23,3 C 9,7 km/h (2 Bft)
09.05.2021 10:45 23,1 C 53 % 1005,7 hPa 0,0 l/m 3,8 km/h (1 Bft) O 94 13,0 C 23,1 C 14,5 km/h (3 Bft)
09.05.2021 10:40 22,7 C 55 % 1005,9 hPa 0,0 l/m 3,4 km/h (1 Bft) O-NO 62 13,2 C 22,7 C 14,5 km/h (3 Bft)
09.05.2021 10:35 22,4 C 55 % 1006,0 hPa 0,0 l/m 5,3 km/h (1 Bft) O-SO 103 12,9 C 22,4 C 14,5 km/h (3 Bft)
09.05.2021 10:30 22,1 C 57 % 1006,1 hPa 0,0 l/m 5,5 km/h (2 Bft) O-SO 109 13,2 C 22,1 C 14,5 km/h (3 Bft)
09.05.2021 10:25 21,8 C 57 % 1006,1 hPa 0,0 l/m 6,2 km/h (2 Bft) S-SW 204 12,9 C 21,8 C 14,5 km/h (3 Bft)
09.05.2021 10:20 21,4 C 59 % 1006,2 hPa 0,0 l/m 5,1 km/h (1 Bft) O-NO 74 13,0 C 21,4 C 12,9 km/h (3 Bft)
09.05.2021 10:15 20,9 C 61 % 1006,3 hPa 0,0 l/m 3,6 km/h (1 Bft) O 96 13,1 C 20,9 C 9,7 km/h (2 Bft)
09.05.2021 10:10 20,6 C 61 % 1006,5 hPa 0,0 l/m 4,6 km/h (1 Bft) O 85 12,8 C 20,6 C 12,9 km/h (3 Bft)
09.05.2021 10:05 20,3 C 62 % 1006,5 hPa 0,0 l/m 4,6 km/h (1 Bft) SO 125 12,8 C 20,3 C 11,3 km/h (2 Bft)
09.05.2021 10:00 20,1 C 62 % 1006,5 hPa 0,0 l/m 3,5 km/h (1 Bft) SO 125 12,6 C 20,1 C 12,9 km/h (3 Bft)
09.05.2021 09:55 19,7 C 64 % 1006,5 hPa 0,0 l/m 4,0 km/h (1 Bft) O-SO 111 12,7 C 19,7 C 16,1 km/h (3 Bft)
09.05.2021 09:50 19,4 C 64 % 1006,4 hPa 0,0 l/m 6,5 km/h (2 Bft) O-NO 65 12,4 C 19,4 C 14,5 km/h (3 Bft)
09.05.2021 09:45 19,2 C 64 % 1006,6 hPa 0,0 l/m 5,7 km/h (2 Bft) O-SO 107 12,2 C 19,2 C 12,9 km/h (3 Bft)
09.05.2021 09:40 18,9 C 65 % 1006,7 hPa 0,0 l/m 3,8 km/h (1 Bft) O 95 12,2 C 18,9 C 9,7 km/h (2 Bft)
09.05.2021 09:35 18,6 C 66 % 1006,8 hPa 0,0 l/m 3,5 km/h (1 Bft) O 96 12,1 C 18,6 C 6,4 km/h (2 Bft)
09.05.2021 09:30 18,4 C 65 % 1006,8 hPa 0,0 l/m 4,7 km/h (1 Bft) O 99 11,7 C 18,4 C 12,9 km/h (3 Bft)
09.05.2021 09:25 18,3 C 66 % 1006,9 hPa 0,0 l/m 4,6 km/h (1 Bft) O-SO 116 11,8 C 18,3 C 12,9 km/h (3 Bft)
09.05.2021 09:20 18,2 C 66 % 1006,9 hPa 0,0 l/m 5,4 km/h (2 Bft) O-SO 111 11,7 C 18,2 C 12,9 km/h (3 Bft)
09.05.2021 09:15 18,1 C 66 % 1007,2 hPa 0,0 l/m 5,7 km/h (2 Bft) O-SO 106 11,6 C 18,1 C 14,5 km/h (3 Bft)
09.05.2021 09:10 18,0 C 67 % 1007,3 hPa 0,0 l/m 4,3 km/h (1 Bft) O-NO 76 11,8 C 18,0 C 14,5 km/h (3 Bft)
09.05.2021 09:05 17,7 C 68 % 1007,3 hPa 0,0 l/m 4,9 km/h (1 Bft) O-SO 105 11,7 C 17,7 C 14,5 km/h (3 Bft)
09.05.2021 09:00 17,4 C 69 % 1007,3 hPa 0,0 l/m 4,0 km/h (1 Bft) O-SO 107 11,7 C 17,4 C 12,9 km/h (3 Bft)
09.05.2021 08:55 16,8 C 70 % 1007,4 hPa 0,0 l/m 3,8 km/h (1 Bft) O-SO 102 11,3 C 16,8 C 9,7 km/h (2 Bft)
09.05.2021 08:50 16,4 C 71 % 1007,6 hPa 0,0 l/m 3,7 km/h (1 Bft) O 86 11,1 C 16,4 C 9,7 km/h (2 Bft)
09.05.2021 08:45 16,0 C 71 % 1007,6 hPa 0,0 l/m 4,0 km/h (1 Bft) O-SO 107 10,7 C 16,0 C 11,3 km/h (2 Bft)
09.05.2021 08:40 15,7 C 72 % 1007,6 hPa 0,0 l/m 4,6 km/h (1 Bft) NO 43 10,7 C 15,7 C 11,3 km/h (2 Bft)
09.05.2021 08:35 15,4 C 73 % 1007,8 hPa 0,0 l/m 3,9 km/h (1 Bft) O-SO 107 10,6 C 15,4 C 11,3 km/h (2 Bft)
09.05.2021 08:30 15,1 C 74 % 1007,8 hPa 0,0 l/m 3,2 km/h (1 Bft) O-SO 109 10,5 C 15,1 C 9,7 km/h (2 Bft)
09.05.2021 08:25 14,8 C 74 % 1007,7 hPa 0,0 l/m 5,1 km/h (1 Bft) O-SO 120 10,2 C 14,8 C 11,3 km/h (2 Bft)
09.05.2021 08:20 14,4 C 75 % 1007,6 hPa 0,0 l/m 4,5 km/h (1 Bft) SO 136 10,0 C 14,4 C 11,3 km/h (2 Bft)
09.05.2021 08:15 14,1 C 76 % 1007,6 hPa 0,0 l/m 5,9 km/h (2 Bft) O-SO 102 9,9 C 14,1 C 12,9 km/h (3 Bft)
09.05.2021 08:10 13,7 C 77 % 1007,6 hPa 0,0 l/m 4,4 km/h (1 Bft) O-SO 118 9,7 C 13,7 C 9,7 km/h (2 Bft)
09.05.2021 08:05 13,3 C 78 % 1007,7 hPa 0,0 l/m 4,2 km/h (1 Bft) O 97 9,5 C 13,3 C 9,7 km/h (2 Bft)
09.05.2021 08:00 12,9 C 80 % 1007,7 hPa 0,0 l/m 4,0 km/h (1 Bft) O 97 9,5 C 12,9 C 11,3 km/h (2 Bft)
09.05.2021 07:55 12,7 C 80 % 1007,6 hPa 0,0 l/m 3,0 km/h (1 Bft) O-SO 116 9,3 C 12,7 C 9,7 km/h (2 Bft)
09.05.2021 07:50 12,6 C 80 % 1007,8 hPa 0,0 l/m 3,4 km/h (1 Bft) S-SO 159 9,2 C 12,6 C 9,7 km/h (2 Bft)
09.05.2021 07:45 12,6 C 80 % 1007,9 hPa 0,0 l/m 3,5 km/h (1 Bft) O 87 9,2 C 12,6 C 11,3 km/h (2 Bft)
09.05.2021 07:40 12,5 C 80 % 1007,9 hPa 0,0 l/m 3,1 km/h (1 Bft) O-SO 123 9,1 C 12,5 C 9,7 km/h (2 Bft)
09.05.2021 07:35 12,5 C 80 % 1008,0 hPa 0,0 l/m 2,4 km/h (1 Bft) O-SO 103 9,1 C 12,5 C 6,4 km/h (2 Bft)
09.05.2021 07:30 12,4 C 81 % 1007,9 hPa 0,0 l/m 2,2 km/h (1 Bft) O 98 9,2 C 12,4 C 6,4 km/h (2 Bft)
09.05.2021 07:25 12,4 C 81 % 1008,0 hPa 0,0 l/m 2,2 km/h (1 Bft) O-SO 114 9,2 C 12,4 C 6,4 km/h (2 Bft)
09.05.2021 07:20 12,3 C 82 % 1008,1 hPa 0,0 l/m 3,2 km/h (1 Bft) O-SO 107 9,3 C 12,3 C 11,3 km/h (2 Bft)
09.05.2021 07:15 12,1 C 83 % 1008,0 hPa 0,0 l/m 2,6 km/h (1 Bft) O 101 9,3 C 12,1 C 4,8 km/h (1 Bft)
09.05.2021 07:10 11,8 C 83 % 1007,9 hPa 0,0 l/m 2,0 km/h (1 Bft) O 93 9,0 C 11,8 C 6,4 km/h (2 Bft)
09.05.2021 07:05 11,7 C 84 % 1007,9 hPa 0,0 l/m 1,2 km/h (1 Bft) O 99 9,1 C 11,7 C 4,8 km/h (1 Bft)
09.05.2021 07:00 11,4 C 84 % 1007,9 hPa 0,0 l/m 1,8 km/h (1 Bft) O 87 8,8 C 11,4 C 8,0 km/h (2 Bft)
09.05.2021 06:55 11,2 C 85 % 1007,8 hPa 0,0 l/m 1,3 km/h (1 Bft) O 83 8,8 C 11,2 C 4,8 km/h (1 Bft)
09.05.2021 06:50 10,9 C 86 % 1007,8 hPa 0,0 l/m 3,8 km/h (1 Bft) N-NO 32 8,7 C 10,9 C 9,7 km/h (2 Bft)
09.05.2021 06:45 10,3 C 87 % 1007,9 hPa 0,0 l/m 2,2 km/h (1 Bft) NO 47 8,2 C 10,3 C 8,0 km/h (2 Bft)
09.05.2021 06:40 10,1 C 85 % 1007,8 hPa 0,0 l/m 0,5 km/h (0 Bft) O-NO 62 7,7 C 10,1 C 3,2 km/h (1 Bft)
09.05.2021 06:35 10,3 C 84 % 1007,8 hPa 0,0 l/m 1,3 km/h (1 Bft) O-NO 63 7,7 C 10,3 C 4,8 km/h (1 Bft)
09.05.2021 06:30 10,5 C 84 % 1007,9 hPa 0,0 l/m 1,0 km/h (0 Bft) O-NO 76 7,9 C 10,5 C 4,8 km/h (1 Bft)
09.05.2021 06:25 10,4 C 88 % 1007,8 hPa 0,0 l/m 3,1 km/h (1 Bft) O-SO 103 8,5 C 10,4 C 8,0 km/h (2 Bft)
09.05.2021 06:20 9,9 C 87 % 1007,9 hPa 0,0 l/m 0,1 km/h (0 Bft) S-SO 157 7,8 C 9,9 C 1,6 km/h (1 Bft)
09.05.2021 06:15 9,7 C 88 % 1007,9 hPa 0,0 l/m 0,6 km/h (0 Bft) S-SO 158 7,8 C 9,7 C 4,8 km/h (1 Bft)
09.05.2021 06:10 9,4 C 88 % 1007,9 hPa 0,0 l/m 0,7 km/h (0 Bft) S 173 7,5 C 9,4 C 4,8 km/h (1 Bft)
09.05.2021 06:05 9,3 C 86 % 1008,1 hPa 0,0 l/m 0,0 km/h (0 Bft) S 183 7,1 C 9,3 C 0,0 km/h (0 Bft)
09.05.2021 06:00 9,5 C 85 % 1008,1 hPa 0,0 l/m 0,0 km/h (0 Bft) S 178 7,1 C 9,5 C 0,0 km/h (0 Bft)
09.05.2021 05:55 9,7 C 84 % 1008,3 hPa 0,0 l/m 0,8 km/h (0 Bft) S 180 7,1 C 9,7 C 4,8 km/h (1 Bft)
09.05.2021 05:50 9,9 C 84 % 1008,2 hPa 0,0 l/m 1,0 km/h (0 Bft) O 92 7,3 C 9,9 C 3,2 km/h (1 Bft)
09.05.2021 05:45 10,0 C 84 % 1008,2 hPa 0,0 l/m 2,1 km/h (1 Bft) O 92 7,4 C 10,0 C 6,4 km/h (2 Bft)
09.05.2021 05:40 10,1 C 86 % 1008,2 hPa 0,0 l/m 1,6 km/h (1 Bft) O 97 7,9 C 10,1 C 6,4 km/h (2 Bft)
09.05.2021 05:35 9,7 C 86 % 1008,3 hPa 0,0 l/m 1,5 km/h (1 Bft) S-SW 205 7,5 C 9,7 C 4,8 km/h (1 Bft)
09.05.2021 05:30 9,7 C 85 % 1008,3 hPa 0,0 l/m 0,6 km/h (0 Bft) O-SO 113 7,3 C 9,7 C 3,2 km/h (1 Bft)
09.05.2021 05:25 9,7 C 85 % 1008,4 hPa 0,0 l/m 2,5 km/h (1 Bft) O-SO 102 7,3 C 9,7 C 6,4 km/h (2 Bft)
09.05.2021 05:20 9,9 C 84 % 1008,5 hPa 0,0 l/m 3,5 km/h (1 Bft) SO 138 7,3 C 9,9 C 9,7 km/h (2 Bft)
09.05.2021 05:15 10,1 C 84 % 1008,5 hPa 0,0 l/m 3,3 km/h (1 Bft) O-SO 105 7,5 C 10,1 C 6,4 km/h (2 Bft)
09.05.2021 05:10 10,2 C 84 % 1008,5 hPa 0,0 l/m 2,8 km/h (1 Bft) O-SO 115 7,6 C 10,2 C 6,4 km/h (2 Bft)
09.05.2021 05:05 10,3 C 84 % 1008,5 hPa 0,0 l/m 2,1 km/h (1 Bft) SO 133 7,7 C 10,3 C 4,8 km/h (1 Bft)
09.05.2021 05:00 10,3 C 84 % 1008,7 hPa 0,0 l/m 2,0 km/h (1 Bft) O-SO 118 7,7 C 10,3 C 4,8 km/h (1 Bft)
09.05.2021 04:55 10,4 C 84 % 1008,6 hPa 0,0 l/m 2,9 km/h (1 Bft) O-SO 115 7,8 C 10,4 C 6,4 km/h (2 Bft)
09.05.2021 04:50 10,4 C 84 % 1008,7 hPa 0,0 l/m 2,8 km/h (1 Bft) SO 128 7,8 C 10,4 C 4,8 km/h (1 Bft)
09.05.2021 04:45 10,4 C 84 % 1008,8 hPa 0,0 l/m 3,1 km/h (1 Bft) O-SO 119 7,8 C 10,4 C 6,4 km/h (2 Bft)
09.05.2021 04:40 10,5 C 84 % 1008,8 hPa 0,0 l/m 2,5 km/h (1 Bft) O-SO 112 7,9 C 10,5 C 6,4 km/h (2 Bft)
09.05.2021 04:35 10,5 C 84 % 1008,9 hPa 0,0 l/m 2,0 km/h (1 Bft) SO 130 7,9 C 10,5 C 6,4 km/h (2 Bft)
09.05.2021 04:30 10,4 C 84 % 1008,9 hPa 0,0 l/m 3,0 km/h (1 Bft) O-SO 105 7,8 C 10,4 C 6,4 km/h (2 Bft)
09.05.2021 04:25 10,4 C 84 % 1008,9 hPa 0,0 l/m 2,7 km/h (1 Bft) O-SO 113 7,8 C 10,4 C 6,4 km/h (2 Bft)
09.05.2021 04:20 10,4 C 83 % 1009,0 hPa 0,0 l/m 3,6 km/h (1 Bft) O-SO 107 7,6 C 10,4 C 6,4 km/h (2 Bft)
09.05.2021 04:15 10,6 C 82 % 1009,2 hPa 0,0 l/m 0,5 km/h (0 Bft) O-SO 103 7,7 C 10,6 C 4,8 km/h (1 Bft)
09.05.2021 04:10 10,7 C 83 % 1009,1 hPa 0,0 l/m 0,5 km/h (0 Bft) O-SO 113 7,9 C 10,7 C 3,2 km/h (1 Bft)
09.05.2021 04:05 10,8 C 83 % 1009,0 hPa 0,0 l/m 1,5 km/h (1 Bft) O-SO 121 8,0 C 10,8 C 3,2 km/h (1 Bft)
09.05.2021 04:00 10,9 C 83 % 1009,1 hPa 0,0 l/m 2,1 km/h (1 Bft) SO 133 8,1 C 10,9 C 6,4 km/h (2 Bft)
09.05.2021 03:55 10,9 C 83 % 1009,2 hPa 0,0 l/m 2,7 km/h (1 Bft) O 101 8,1 C 10,9 C 4,8 km/h (1 Bft)
09.05.2021 03:50 10,9 C 83 % 1009,4 hPa 0,0 l/m 1,9 km/h (1 Bft) O-SO 123 8,1 C 10,9 C 4,8 km/h (1 Bft)
09.05.2021 03:45 10,9 C 83 % 1009,3 hPa 0,0 l/m 2,5 km/h (1 Bft) O-SO 116 8,1 C 10,9 C 4,8 km/h (1 Bft)
09.05.2021 03:40 10,9 C 83 % 1009,4 hPa 0,0 l/m 2,5 km/h (1 Bft) SO 128 8,1 C 10,9 C 6,4 km/h (2 Bft)
09.05.2021 03:35 10,9 C 83 % 1009,4 hPa 0,0 l/m 1,9 km/h (1 Bft) O-SO 116 8,1 C 10,9 C 4,8 km/h (1 Bft)
09.05.2021 03:30 11,0 C 82 % 1009,5 hPa 0,0 l/m 1,0 km/h (0 Bft) O-SO 111 8,0 C 11,0 C 6,4 km/h (2 Bft)
09.05.2021 03:25 11,0 C 82 % 1009,6 hPa 0,0 l/m 1,2 km/h (1 Bft) O-SO 121 8,0 C 11,0 C 3,2 km/h (1 Bft)
09.05.2021 03:20 11,1 C 82 % 1009,6 hPa 0,0 l/m 1,0 km/h (0 Bft) O-SO 105 8,1 C 11,1 C 4,8 km/h (1 Bft)
09.05.2021 03:15 11,1 C 82 % 1009,7 hPa 0,0 l/m 1,5 km/h (1 Bft) SO 126 8,1 C 11,1 C 4,8 km/h (1 Bft)
09.05.2021 03:10 11,0 C 83 % 1009,7 hPa 0,0 l/m 1,1 km/h (1 Bft) SO 124 8,2 C 11,0 C 4,8 km/h (1 Bft)
09.05.2021 03:05 10,8 C 84 % 1009,8 hPa 0,0 l/m 0,9 km/h (0 Bft) SO 125 8,2 C 10,8 C 4,8 km/h (1 Bft)
09.05.2021 03:00 10,5 C 85 % 1009,8 hPa 0,0 l/m 0,0 km/h (0 Bft) S-SO 164 8,1 C 10,5 C 0,0 km/h (0 Bft)
09.05.2021 02:55 10,3 C 85 % 1009,8 hPa 0,0 l/m 0,0 km/h (0 Bft) S-SO 167 7,9 C 10,3 C 0,0 km/h (0 Bft)
09.05.2021 02:50 10,1 C 86 % 1009,9 hPa 0,0 l/m 0,0 km/h (0 Bft) S 171 7,9 C 10,1 C 0,0 km/h (0 Bft)
09.05.2021 02:45 10,0 C 85 % 1009,9 hPa 0,0 l/m 0,0 km/h (0 Bft) S 171 7,6 C 10,0 C 0,0 km/h (0 Bft)
09.05.2021 02:40 10,0 C 84 % 1010,0 hPa 0,0 l/m 0,0 km/h (0 Bft) S 171 7,4 C 10,0 C 0,0 km/h (0 Bft)
09.05.2021 02:35 10,0 C 84 % 1010,1 hPa 0,0 l/m 0,0 km/h (0 Bft) S 171 7,4 C 10,0 C 0,0 km/h (0 Bft)
09.05.2021 02:30 10,1 C 84 % 1010,1 hPa 0,0 l/m 0,0 km/h (0 Bft) S 171 7,5 C 10,1 C 0,0 km/h (0 Bft)
09.05.2021 02:25 10,1 C 83 % 1010,1 hPa 0,0 l/m 0,0 km/h (0 Bft) S 171 7,3 C 10,1 C 0,0 km/h (0 Bft)
09.05.2021 02:20 10,2 C 82 % 1010,2 hPa 0,0 l/m 0,0 km/h (0 Bft) S 171 7,3 C 10,2 C 0,0 km/h (0 Bft)
09.05.2021 02:15 10,4 C 82 % 1010,2 hPa 0,0 l/m 0,0 km/h (0 Bft) S 171 7,5 C 10,4 C 0,0 km/h (0 Bft)
09.05.2021 02:10 10,6 C 82 % 1010,4 hPa 0,0 l/m 0,0 km/h (0 Bft) S 171 7,7 C 10,6 C 0,0 km/h (0 Bft)
09.05.2021 02:05 10,7 C 82 % 1010,4 hPa 0,0 l/m 0,0 km/h (0 Bft) S 171 7,8 C 10,7 C 0,0 km/h (0 Bft)
09.05.2021 02:00 10,8 C 82 % 1010,4 hPa 0,0 l/m 0,0 km/h (0 Bft) S 171 7,9 C 10,8 C 0,0 km/h (0 Bft)
09.05.2021 01:55 11,0 C 82 % 1010,5 hPa 0,0 l/m 0,0 km/h (0 Bft) S 171 8,0 C 11,0 C 0,0 km/h (0 Bft)
09.05.2021 01:50 11,1 C 81 % 1010,6 hPa 0,0 l/m 0,0 km/h (0 Bft) S 171 8,0 C 11,1 C 0,0 km/h (0 Bft)
09.05.2021 01:45 11,3 C 81 % 1010,5 hPa 0,0 l/m 0,0 km/h (0 Bft) S 171 8,2 C 11,3 C 0,0 km/h (0 Bft)
09.05.2021 01:40 11,4 C 81 % 1010,6 hPa 0,0 l/m 0,0 km/h (0 Bft) S 171 8,3 C 11,4 C 0,0 km/h (0 Bft)
09.05.2021 01:35 11,4 C 81 % 1010,7 hPa 0,0 l/m 0,0 km/h (0 Bft) S 171 8,3 C 11,4 C 0,0 km/h (0 Bft)
09.05.2021 01:30 11,6 C 81 % 1010,8 hPa 0,0 l/m 0,0 km/h (0 Bft) S 171 8,5 C 11,6 C 0,0 km/h (0 Bft)
09.05.2021 01:25 11,8 C 80 % 1010,7 hPa 0,0 l/m 0,0 km/h (0 Bft) S 171 8,5 C 11,8 C 0,0 km/h (0 Bft)
09.05.2021 01:20 11,9 C 80 % 1010,9 hPa 0,0 l/m 0,0 km/h (0 Bft) S 171 8,6 C 11,9 C 0,0 km/h (0 Bft)
09.05.2021 01:15 12,1 C 79 % 1010,8 hPa 0,0 l/m 0,0 km/h (0 Bft) S 171 8,6 C 12,1 C 0,0 km/h (0 Bft)
09.05.2021 01:10 12,2 C 79 % 1010,9 hPa 0,0 l/m 0,0 km/h (0 Bft) S 171 8,7 C 12,2 C 0,0 km/h (0 Bft)
09.05.2021 01:05 12,4 C 78 % 1010,9 hPa 0,0 l/m 0,0 km/h (0 Bft) S 171 8,7 C 12,4 C 0,0 km/h (0 Bft)
09.05.2021 01:00 12,5 C 78 % 1010,9 hPa 0,0 l/m 0,0 km/h (0 Bft) S 171 8,8 C 12,5 C 0,0 km/h (0 Bft)
09.05.2021 00:55 12,7 C 78 % 1010,9 hPa 0,0 l/m 0,0 km/h (0 Bft) S 175 9,0 C 12,7 C 0,0 km/h (0 Bft)
09.05.2021 00:50 12,8 C 77 % 1010,9 hPa 0,0 l/m 0,0 km/h (0 Bft) S 184 8,9 C 12,8 C 0,0 km/h (0 Bft)
09.05.2021 00:45 13,1 C 76 % 1011,0 hPa 0,0 l/m 0,0 km/h (0 Bft) S 185 9,0 C 13,1 C 0,0 km/h (0 Bft)
09.05.2021 00:40 13,2 C 76 % 1011,0 hPa 0,0 l/m 0,0 km/h (0 Bft) S-SW 198 9,1 C 13,2 C 0,0 km/h (0 Bft)
09.05.2021 00:35 13,3 C 76 % 1011,0 hPa 0,0 l/m 0,0 km/h (0 Bft) S-SW 203 9,2 C 13,3 C 0,0 km/h (0 Bft)
09.05.2021 00:30 13,4 C 76 % 1011,0 hPa 0,0 l/m 0,0 km/h (0 Bft) S-SW 207 9,3 C 13,4 C 0,0 km/h (0 Bft)
09.05.2021 00:25 13,4 C 76 % 1011,0 hPa 0,0 l/m 0,0 km/h (0 Bft) W-SW 243 9,3 C 13,4 C 1,6 km/h (1 Bft)
09.05.2021 00:20 13,5 C 75 % 1011,1 hPa 0,0 l/m 0,0 km/h (0 Bft) S 179 9,2 C 13,5 C 0,0 km/h (0 Bft)
09.05.2021 00:15 13,6 C 75 % 1011,1 hPa 0,0 l/m 0,0 km/h (0 Bft) S 190 9,3 C 13,6 C 0,0 km/h (0 Bft)
09.05.2021 00:10 13,6 C 75 % 1011,0 hPa 0,0 l/m 0,0 km/h (0 Bft) S-SW 198 9,3 C 13,6 C 0,0 km/h (0 Bft)
09.05.2021 00:05 13,7 C 75 % 1011,1 hPa 0,0 l/m 0,0 km/h (0 Bft) S-SW 198 9,3 C 13,7 C 1,6 km/h (1 Bft)
09.05.2021 00:00 13,7 C 75 % 1011,1 hPa 0,0 l/m 0,1 km/h (0 Bft) S-SW 195 9,3 C 13,7 C 1,6 km/h (1 Bft)
08.05.2021 23:55 13,7 C 75 % 1011,1 hPa 0,0 l/m 1,0 km/h (0 Bft) S-SW 195 9,3 C 13,7 C 3,2 km/h (1 Bft)
08.05.2021 23:50 13,6 C 75 % 1011,2 hPa 0,0 l/m 1,4 km/h (1 Bft) S 190 9,3 C 13,6 C 4,8 km/h (1 Bft)
08.05.2021 23:45 13,6 C 75 % 1011,2 hPa 0,0 l/m 0,3 km/h (0 Bft) S-SW 197 9,3 C 13,6 C 3,2 km/h (1 Bft)
08.05.2021 23:40 13,6 C 75 % 1011,2 hPa 0,0 l/m 0,7 km/h (0 Bft) S 190 9,3 C 13,6 C 3,2 km/h (1 Bft)
08.05.2021 23:35 13,5 C 76 % 1011,1 hPa 0,0 l/m 1,3 km/h (1 Bft) S-SW 212 9,4 C 13,5 C 3,2 km/h (1 Bft)
08.05.2021 23:30 13,4 C 76 % 1011,2 hPa 0,0 l/m 0,7 km/h (0 Bft) S-SW 202 9,3 C 13,4 C 4,8 km/h (1 Bft)
08.05.2021 23:25 13,3 C 76 % 1011,3 hPa 0,0 l/m 0,0 km/h (0 Bft) S-SO 148 9,2 C 13,3 C 0,0 km/h (0 Bft)
08.05.2021 23:20 13,4 C 76 % 1011,3 hPa 0,0 l/m 0,0 km/h (0 Bft) SO 145 9,3 C 13,4 C 0,0 km/h (0 Bft)
08.05.2021 23:15 13,6 C 75 % 1011,3 hPa 0,0 l/m 0,0 km/h (0 Bft) SO 144 9,3 C 13,6 C 0,0 km/h (0 Bft)
08.05.2021 23:10 13,8 C 75 % 1011,3 hPa 0,0 l/m 0,0 km/h (0 Bft) SO 136 9,4 C 13,8 C 0,0 km/h (0 Bft)
08.05.2021 23:05 14,1 C 75 % 1011,4 hPa 0,0 l/m 0,0 km/h (0 Bft) SO 136 9,7 C 14,1 C 0,0 km/h (0 Bft)
08.05.2021 23:00 14,2 C 74 % 1011,4 hPa 0,0 l/m 0,0 km/h (0 Bft) SO 136 9,6 C 14,2 C 0,0 km/h (0 Bft)
08.05.2021 22:55 14,4 C 74 % 1011,5 hPa 0,0 l/m 0,0 km/h (0 Bft) SO 136 9,8 C 14,4 C 0,0 km/h (0 Bft)
08.05.2021 22:50 14,6 C 74 % 1011,5 hPa 0,0 l/m 0,1 km/h (0 Bft) SO 136 10,0 C 14,6 C 1,6 km/h (1 Bft)
08.05.2021 22:45 14,7 C 73 % 1011,6 hPa 0,0 l/m 0,9 km/h (0 Bft) SO 136 9,9 C 14,7 C 3,2 km/h (1 Bft)
08.05.2021 22:40 14,8 C 73 % 1011,5 hPa 0,0 l/m 0,7 km/h (0 Bft) SO 136 10,0 C 14,8 C 3,2 km/h (1 Bft)
08.05.2021 22:35 14,8 C 73 % 1011,5 hPa 0,0 l/m 0,0 km/h (0 Bft) SO 137 10,0 C 14,8 C 0,0 km/h (0 Bft)
08.05.2021 22:30 14,9 C 72 % 1011,7 hPa 0,0 l/m 0,0 km/h (0 Bft) SO 136 9,9 C 14,9 C 0,0 km/h (0 Bft)
08.05.2021 22:25 14,9 C 72 % 1011,6 hPa 0,0 l/m 0,0 km/h (0 Bft) SO 137 9,9 C 14,9 C 0,0 km/h (0 Bft)
08.05.2021 22:20 14,9 C 72 % 1011,7 hPa 0,0 l/m 0,0 km/h (0 Bft) SO 137 9,9 C 14,9 C 0,0 km/h (0 Bft)
08.05.2021 22:15 15,1 C 72 % 1011,6 hPa 0,0 l/m 0,0 km/h (0 Bft) SO 137 10,1 C 15,1 C 0,0 km/h (0 Bft)
08.05.2021 22:10 15,1 C 71 % 1011,6 hPa 0,0 l/m 0,0 km/h (0 Bft) SO 137 9,9 C 15,1 C 0,0 km/h (0 Bft)
08.05.2021 22:05 15,1 C 71 % 1011,6 hPa 0,0 l/m 0,0 km/h (0 Bft) SO 137 9,9 C 15,1 C 0,0 km/h (0 Bft)
08.05.2021 22:00 15,2 C 71 % 1011,6 hPa 0,0 l/m 0,0 km/h (0 Bft) SO 137 10,0 C 15,2 C 0,0 km/h (0 Bft)
08.05.2021 21:55 15,3 C 71 % 1011,6 hPa 0,0 l/m 0,1 km/h (0 Bft) SO 137 10,1 C 15,3 C 1,6 km/h (1 Bft)
08.05.2021 21:50 15,4 C 71 % 1011,6 hPa 0,0 l/m 0,0 km/h (0 Bft) SO 137 10,2 C 15,4 C 0,0 km/h (0 Bft)
08.05.2021 21:45 15,5 C 70 % 1011,6 hPa 0,0 l/m 0,0 km/h (0 Bft) SO 137 10,1 C 15,5 C 0,0 km/h (0 Bft)
08.05.2021 21:40 15,6 C 70 % 1011,7 hPa 0,0 l/m 0,0 km/h (0 Bft) SO 136 10,1 C 15,6 C 0,0 km/h (0 Bft)
08.05.2021 21:35 15,7 C 69 % 1011,8 hPa 0,0 l/m 0,0 km/h (0 Bft) SO 136 10,0 C 15,7 C 0,0 km/h (0 Bft)
08.05.2021 21:30 15,8 C 69 % 1011,7 hPa 0,0 l/m 0,0 km/h (0 Bft) SO 136 10,1 C 15,8 C 0,0 km/h (0 Bft)
08.05.2021 21:25 15,9 C 68 % 1011,7 hPa 0,0 l/m 0,0 km/h (0 Bft) SO 136 10,0 C 15,9 C 0,0 km/h (0 Bft)
08.05.2021 21:20 16,0 C 67 % 1011,6 hPa 0,0 l/m 0,2 km/h (0 Bft) SO 136 9,9 C 16,0 C 1,6 km/h (1 Bft)
08.05.2021 21:15 16,1 C 67 % 1011,6 hPa 0,0 l/m 0,0 km/h (0 Bft) SO 137 10,0 C 16,1 C 0,0 km/h (0 Bft)
08.05.2021 21:10 16,3 C 66 % 1011,6 hPa 0,0 l/m 0,1 km/h (0 Bft) SO 139 9,9 C 16,3 C 1,6 km/h (1 Bft)
08.05.2021 21:05 16,4 C 66 % 1011,6 hPa 0,0 l/m 0,0 km/h (0 Bft) SO 140 10,0 C 16,4 C 0,0 km/h (0 Bft)
08.05.2021 21:00 16,5 C 65 % 1011,6 hPa 0,0 l/m 0,0 km/h (0 Bft) SO 140 9,9 C 16,5 C 0,0 km/h (0 Bft)
08.05.2021 20:55 16,6 C 64 % 1011,5 hPa 0,0 l/m 0,0 km/h (0 Bft) SO 140 9,8 C 16,6 C 0,0 km/h (0 Bft)
08.05.2021 20:50 16,7 C 64 % 1011,5 hPa 0,0 l/m 0,3 km/h (0 Bft) SO 140 9,9 C 16,7 C 3,2 km/h (1 Bft)
08.05.2021 20:45 16,7 C 64 % 1011,5 hPa 0,0 l/m 0,0 km/h (0 Bft) SO 138 9,9 C 16,7 C 0,0 km/h (0 Bft)
08.05.2021 20:40 16,8 C 64 % 1011,5 hPa 0,0 l/m 0,1 km/h (0 Bft) SO 138 10,0 C 16,8 C 1,6 km/h (1 Bft)
08.05.2021 20:35 16,9 C 63 % 1011,5 hPa 0,0 l/m 0,4 km/h (0 Bft) SO 138 9,8 C 16,9 C 3,2 km/h (1 Bft)
08.05.2021 20:30 17,0 C 63 % 1011,4 hPa 0,0 l/m 0,7 km/h (0 Bft) SO 141 9,9 C 17,0 C 3,2 km/h (1 Bft)
08.05.2021 20:25 17,1 C 62 % 1011,4 hPa 0,0 l/m 0,7 km/h (0 Bft) SO 141 9,8 C 17,1 C 4,8 km/h (1 Bft)
08.05.2021 20:20 17,2 C 62 % 1011,4 hPa 0,0 l/m 1,2 km/h (1 Bft) S-SW 197 9,9 C 17,2 C 6,4 km/h (2 Bft)
08.05.2021 20:15 17,2 C 62 % 1011,4 hPa 0,0 l/m 5,4 km/h (2 Bft) S-SW 205 9,9 C 17,2 C 12,9 km/h (3 Bft)
08.05.2021 20:10 17,2 C 62 % 1011,4 hPa 0,0 l/m 5,7 km/h (2 Bft) S-SW 197 9,9 C 17,2 C 16,1 km/h (3 Bft)
08.05.2021 20:05 17,1 C 62 % 1011,3 hPa 0,0 l/m 5,0 km/h (1 Bft) SW 227 9,8 C 17,1 C 8,0 km/h (2 Bft)
08.05.2021 20:00 17,2 C 62 % 1011,4 hPa 0,0 l/m 3,3 km/h (1 Bft) S-SW 210 9,9 C 17,2 C 8,0 km/h (2 Bft)
08.05.2021 19:55 17,2 C 61 % 1011,3 hPa 0,0 l/m 6,1 km/h (2 Bft) S-SW 206 9,6 C 17,2 C 11,3 km/h (2 Bft)
08.05.2021 19:50 17,2 C 61 % 1011,4 hPa 0,0 l/m 6,4 km/h (2 Bft) S-SW 201 9,6 C 17,2 C 16,1 km/h (3 Bft)
08.05.2021 19:45 17,3 C 61 % 1011,4 hPa 0,0 l/m 6,8 km/h (2 Bft) W-SW 240 9,7 C 17,1 C 16,1 km/h (3 Bft)
08.05.2021 19:40 17,3 C 60 % 1011,3 hPa 0,0 l/m 8,1 km/h (2 Bft) S 187 9,5 C 16,5 C 14,5 km/h (3 Bft)
08.05.2021 19:35 17,3 C 60 % 1011,4 hPa 0,0 l/m 7,3 km/h (2 Bft) S 189 9,5 C 16,9 C 20,9 km/h (4 Bft)
08.05.2021 19:30 17,4 C 60 % 1011,5 hPa 0,0 l/m 8,3 km/h (2 Bft) S-SW 209 9,6 C 16,5 C 16,1 km/h (3 Bft)
08.05.2021 19:25 17,5 C 59 % 1011,4 hPa 0,0 l/m 7,4 km/h (2 Bft) SW 236 9,4 C 17,0 C 16,1 km/h (3 Bft)
08.05.2021 19:20 17,6 C 60 % 1011,5 hPa 0,0 l/m 7,3 km/h (2 Bft) S-SW 209 9,7 C 17,2 C 19,3 km/h (3 Bft)
08.05.2021 19:15 17,7 C 58 % 1011,5 hPa 0,0 l/m 9,2 km/h (2 Bft) S-SW 204 9,3 C 16,4 C 19,3 km/h (3 Bft)
08.05.2021 19:10 17,9 C 58 % 1011,5 hPa 0,0 l/m 6,7 km/h (2 Bft) S-SW 209 9,5 C 17,8 C 17,7 km/h (3 Bft)
08.05.2021 19:05 18,1 C 58 % 1011,6 hPa 0,0 l/m 4,8 km/h (1 Bft) S-SW 209 9,7 C 18,1 C 12,9 km/h (3 Bft)
08.05.2021 19:00 18,2 C 57 % 1011,6 hPa 0,0 l/m 6,1 km/h (2 Bft) S-SW 199 9,5 C 18,2 C 11,3 km/h (2 Bft)
08.05.2021 18:55 18,3 C 57 % 1011,7 hPa 0,0 l/m 5,3 km/h (1 Bft) SW 234 9,6 C 18,3 C 19,3 km/h (3 Bft)
08.05.2021 18:50 18,2 C 56 % 1011,8 hPa 0,0 l/m 5,9 km/h (2 Bft) W-SW 254 9,3 C 18,2 C 16,1 km/h (3 Bft)
08.05.2021 18:45 18,3 C 56 % 1011,6 hPa 0,0 l/m 9,6 km/h (2 Bft) W-SW 240 9,4 C 16,9 C 24,1 km/h (4 Bft)
08.05.2021 18:40 18,2 C 57 % 1011,7 hPa 0,0 l/m 7,6 km/h (2 Bft) S-SW 205 9,5 C 17,6 C 17,7 km/h (3 Bft)
08.05.2021 18:35 17,9 C 57 % 1011,6 hPa 0,0 l/m 7,4 km/h (2 Bft) SW 216 9,3 C 17,4 C 19,3 km/h (3 Bft)
08.05.2021 18:30 17,6 C 59 % 1011,8 hPa 0,0 l/m 5,6 km/h (2 Bft) S-SW 200 9,5 C 17,6 C 14,5 km/h (3 Bft)
08.05.2021 18:25 17,4 C 58 % 1011,9 hPa 0,0 l/m 9,9 km/h (2 Bft) W-SW 246 9,1 C 15,8 C 20,9 km/h (4 Bft)
08.05.2021 18:20 17,3 C 58 % 1012,0 hPa 0,0 l/m 7,6 km/h (2 Bft) S-SW 198 9,0 C 16,7 C 20,9 km/h (4 Bft)
08.05.2021 18:15 17,3 C 58 % 1012,1 hPa 0,0 l/m 8,9 km/h (2 Bft) SW 234 9,0 C 16,1 C 22,5 km/h (4 Bft)
08.05.2021 18:10 17,2 C 58 % 1012,2 hPa 0,0 l/m 6,0 km/h (2 Bft) S-SW 202 8,9 C 17,2 C 14,5 km/h (3 Bft)
08.05.2021 18:05 17,2 C 58 % 1012,1 hPa 0,0 l/m 12,3 km/h (2 Bft) W-NW 293 8,9 C 14,7 C 29,0 km/h (5 Bft)
08.05.2021 18:00 17,2 C 58 % 1012,3 hPa 0,0 l/m 8,5 km/h (2 Bft) W-SW 254 8,9 C 16,2 C 17,7 km/h (3 Bft)
08.05.2021 17:55 17,3 C 58 % 1012,2 hPa 0,0 l/m 6,6 km/h (2 Bft) W-SW 238 9,0 C 17,2 C 14,5 km/h (3 Bft)
08.05.2021 17:50 17,1 C 57 % 1012,3 hPa 0,0 l/m 5,4 km/h (2 Bft) W 266 8,5 C 17,1 C 11,3 km/h (2 Bft)
08.05.2021 17:45 17,0 C 57 % 1012,4 hPa 0,0 l/m 6,5 km/h (2 Bft) S-SW 193 8,4 C 17,0 C 16,1 km/h (3 Bft)
08.05.2021 17:40 16,8 C 57 % 1012,5 hPa 0,0 l/m 5,4 km/h (2 Bft) S 184 8,2 C 16,8 C 11,3 km/h (2 Bft)
08.05.2021 17:35 16,8 C 56 % 1012,5 hPa 0,0 l/m 7,1 km/h (2 Bft) SW 230 8,0 C 16,4 C 22,5 km/h (4 Bft)
08.05.2021 17:30 16,7 C 56 % 1012,5 hPa 0,0 l/m 7,6 km/h (2 Bft) SW 229 7,9 C 16,1 C 17,7 km/h (3 Bft)
08.05.2021 17:25 16,7 C 56 % 1012,7 hPa 0,0 l/m 9,6 km/h (2 Bft) SW 236 7,9 C 15,2 C 24,1 km/h (4 Bft)
08.05.2021 17:20 16,7 C 57 % 1012,6 hPa 0,0 l/m 8,1 km/h (2 Bft) S 176 8,1 C 15,8 C 16,1 km/h (3 Bft)
08.05.2021 17:15 16,7 C 55 % 1012,6 hPa 0,0 l/m 10,8 km/h (2 Bft) W 261 7,6 C 14,7 C 22,5 km/h (4 Bft)
08.05.2021 17:10 16,7 C 55 % 1012,5 hPa 0,0 l/m 8,5 km/h (2 Bft) SW 221 7,6 C 15,6 C 24,1 km/h (4 Bft)
08.05.2021 17:05 16,6 C 54 % 1012,6 hPa 0,0 l/m 7,8 km/h (2 Bft) S-SW 211 7,3 C 15,9 C 16,1 km/h (3 Bft)
08.05.2021 17:00 16,6 C 54 % 1012,6 hPa 0,0 l/m 10,3 km/h (2 Bft) S-SO 153 7,3 C 14,8 C 24,1 km/h (4 Bft)
08.05.2021 16:55 16,6 C 53 % 1012,6 hPa 0,0 l/m 8,5 km/h (2 Bft) S-SW 210 7,0 C 15,5 C 17,7 km/h (3 Bft)
08.05.2021 16:50 16,5 C 54 % 1012,7 hPa 0,0 l/m 6,0 km/h (2 Bft) S 190 7,2 C 16,5 C 16,1 km/h (3 Bft)
08.05.2021 16:45 16,4 C 53 % 1012,8 hPa 0,0 l/m 8,2 km/h (2 Bft) W-SW 251 6,8 C 15,5 C 17,7 km/h (3 Bft)
08.05.2021 16:40 16,3 C 53 % 1012,7 hPa 0,0 l/m 5,4 km/h (2 Bft) S-SO 164 6,7 C 16,3 C 14,5 km/h (3 Bft)
08.05.2021 16:35 16,2 C 53 % 1012,8 hPa 0,0 l/m 7,9 km/h (2 Bft) S 182 6,6 C 15,4 C 24,1 km/h (4 Bft)
08.05.2021 16:30 16,1 C 53 % 1012,9 hPa 0,0 l/m 5,1 km/h (1 Bft) W 273 6,5 C 16,1 C 11,3 km/h (2 Bft)
08.05.2021 16:25 15,9 C 54 % 1013,0 hPa 0,0 l/m 4,2 km/h (1 Bft) S 188 6,6 C 15,9 C 12,9 km/h (3 Bft)
08.05.2021 16:20 15,6 C 54 % 1013,0 hPa 0,0 l/m 5,2 km/h (1 Bft) W-NW 301 6,3 C 15,6 C 16,1 km/h (3 Bft)
08.05.2021 16:15 15,4 C 54 % 1013,3 hPa 0,0 l/m 9,1 km/h (2 Bft) S-SW 199 6,1 C 14,0 C 17,7 km/h (3 Bft)
08.05.2021 16:10 15,3 C 54 % 1013,3 hPa 0,0 l/m 5,5 km/h (2 Bft) SW 224 6,0 C 15,3 C 12,9 km/h (3 Bft)
08.05.2021 16:05 15,3 C 53 % 1013,4 hPa 0,0 l/m 4,7 km/h (1 Bft) SO 133 5,8 C 15,3 C 12,9 km/h (3 Bft)
08.05.2021 16:00 15,3 C 53 % 1013,4 hPa 0,0 l/m 6,8 km/h (2 Bft) S-SW 207 5,8 C 15,1 C 16,1 km/h (3 Bft)
08.05.2021 15:55 15,2 C 51 % 1013,5 hPa 0,0 l/m 7,0 km/h (2 Bft) S-SW 200 5,1 C 14,9 C 12,9 km/h (3 Bft)
08.05.2021 15:50 15,2 C 52 % 1013,5 hPa 0,0 l/m 6,2 km/h (2 Bft) NO 53 5,4 C 15,2 C 14,5 km/h (3 Bft)
08.05.2021 15:45 15,1 C 51 % 1013,6 hPa 0,0 l/m 7,5 km/h (2 Bft) S-SW 210 5,0 C 14,5 C 17,7 km/h (3 Bft)
08.05.2021 15:40 15,1 C 50 % 1013,6 hPa 0,0 l/m 7,6 km/h (2 Bft) N-NO 17 4,8 C 14,4 C 17,7 km/h (3 Bft)
08.05.2021 15:35 15,1 C 51 % 1013,7 hPa 0,0 l/m 5,9 km/h (2 Bft) SW 221 5,0 C 15,1 C 19,3 km/h (3 Bft)
08.05.2021 15:30 15,0 C 50 % 1013,8 hPa 0,0 l/m 8,6 km/h (2 Bft) SW 215 4,7 C 13,8 C 20,9 km/h (4 Bft)
08.05.2021 15:25 14,9 C 51 % 1014,1 hPa 0,0 l/m 6,4 km/h (2 Bft) S-SO 152 4,9 C 14,9 C 14,5 km/h (3 Bft)
08.05.2021 15:20 14,9 C 51 % 1014,2 hPa 0,0 l/m 8,2 km/h (2 Bft) S-SW 199 4,9 C 13,9 C 17,7 km/h (3 Bft)
08.05.2021 15:15 14,9 C 52 % 1014,2 hPa 0,0 l/m 7,3 km/h (2 Bft) O-NO 78 5,1 C 14,4 C 16,1 km/h (3 Bft)
08.05.2021 15:10 14,8 C 52 % 1014,3 hPa 0,0 l/m 9,9 km/h (2 Bft) SW 217 5,0 C 12,9 C 19,3 km/h (3 Bft)
08.05.2021 15:05 14,9 C 51 % 1014,4 hPa 0,0 l/m 9,4 km/h (2 Bft) SO 135 4,9 C 13,3 C 19,3 km/h (3 Bft)
08.05.2021 15:00 15,0 C 52 % 1014,5 hPa 0,0 l/m 7,7 km/h (2 Bft) SW 235 5,2 C 14,3 C 17,7 km/h (3 Bft)
08.05.2021 14:55 15,1 C 49 % 1014,5 hPa 0,0 l/m 9,2 km/h (2 Bft) S 182 4,5 C 13,6 C 19,3 km/h (3 Bft)
08.05.2021 14:50 15,0 C 50 % 1014,5 hPa 0,0 l/m 4,6 km/h (1 Bft) N-NW 345 4,7 C 15,0 C 14,5 km/h (3 Bft)
08.05.2021 14:45 14,8 C 50 % 1014,7 hPa 0,0 l/m 4,5 km/h (1 Bft) S-SW 199 4,5 C 14,8 C 8,0 km/h (2 Bft)
08.05.2021 14:40 14,7 C 50 % 1014,7 hPa 0,0 l/m 5,5 km/h (2 Bft) SW 214 4,4 C 14,7 C 12,9 km/h (3 Bft)
08.05.2021 14:35 14,7 C 50 % 1014,7 hPa 0,0 l/m 5,4 km/h (2 Bft) SW 221 4,4 C 14,7 C 16,1 km/h (3 Bft)
08.05.2021 14:30 14,7 C 49 % 1014,8 hPa 0,0 l/m 7,1 km/h (2 Bft) SW 227 4,1 C 14,3 C 17,7 km/h (3 Bft)
08.05.2021 14:25 14,7 C 50 % 1015,0 hPa 0,0 l/m 6,8 km/h (2 Bft) SW 228 4,4 C 14,5 C 24,1 km/h (4 Bft)
08.05.2021 14:20 14,9 C 48 % 1015,1 hPa 0,0 l/m 8,4 km/h (2 Bft) S-SW 193 4,0 C 13,8 C 19,3 km/h (3 Bft)
08.05.2021 14:15 15,1 C 48 % 1015,1 hPa 0,0 l/m 9,1 km/h (2 Bft) SW 227 4,2 C 13,6 C 20,9 km/h (4 Bft)
08.05.2021 14:10 15,1 C 46 % 1015,1 hPa 0,0 l/m 8,1 km/h (2 Bft) O 96 3,6 C 14,2 C 22,5 km/h (4 Bft)
08.05.2021 14:05 15,1 C 46 % 1015,2 hPa 0,0 l/m 6,0 km/h (2 Bft) S 184 3,6 C 15,1 C 16,1 km/h (3 Bft)
08.05.2021 14:00 15,0 C 45 % 1015,3 hPa 0,0 l/m 7,7 km/h (2 Bft) O-NO 74 3,2 C 14,3 C 17,7 km/h (3 Bft)
_ Min-Zeit 06:05 12:50 12:20 - 20:45 - - 14:00 06:05 20:45
Minimum _ 9,3 C 43 % 1004,2 hPa - 0,0 km/h (0 Bft) - - 3,2 C 9,3 C 0,0 km/h (0 Bft)
_ Max-Zeit 12:55 06:10 14:00 14:00 13:20 - - 10:50 12:50 12:05
Maximum _ 26,2 C 88 % 1015,3 hPa 0,0 l/m 16,2 km/h
S (3 Bft)
- - 13,5 C 25,1 C 37,0 km/h
S-SO (5 Bft)
Durchschnitt _ 15,5 C 65 % 1010,2 hPa #0,0 l/m 4,5 km/h (1 Bft) SO - 8,7 C 15,2 C 11,1 km/h (2 Bft)
www.klaudt.eu